createdAt,value
2018-01-15T00:02:41.321Z,30.43
2018-01-15T00:07:44.170Z,28.67
2018-01-15T00:12:46.926Z,28.07
2018-01-15T00:17:50.270Z,27.77
2018-01-15T00:22:52.899Z,27.80
2018-01-15T00:27:56.269Z,27.33
2018-01-15T00:32:59.055Z,27.50
2018-01-15T00:38:02.403Z,27.97
2018-01-15T00:43:05.173Z,28.93
2018-01-15T00:48:09.059Z,27.53
2018-01-15T00:53:11.814Z,26.57
2018-01-15T00:58:15.003Z,26.30
2018-01-15T01:03:18.404Z,29.43
2018-01-15T01:08:21.354Z,29.23
2018-01-15T01:13:23.993Z,28.40
2018-01-15T01:18:27.582Z,29.67
2018-01-15T01:23:30.300Z,28.40
2018-01-15T01:28:33.631Z,28.33
2018-01-15T01:33:36.380Z,29.20
2018-01-15T01:38:39.739Z,27.23
2018-01-15T01:43:42.394Z,28.53
2018-01-15T01:49:01.577Z,28.70
2018-01-15T01:54:04.296Z,31.13
2018-01-15T01:59:07.634Z,29.17
2018-01-15T02:04:10.400Z,29.67
2018-01-15T02:09:13.617Z,30.10
2018-01-15T02:14:16.578Z,28.70
2018-01-15T02:19:19.797Z,29.37
2018-01-15T02:24:22.516Z,29.87
2018-01-15T02:29:26.287Z,29.20
2018-01-15T02:34:28.944Z,29.80
2018-01-15T02:39:33.240Z,30.20
2018-01-15T02:44:35.886Z,29.93
2018-01-15T02:49:40.335Z,29.43
2018-01-15T02:54:43.065Z,28.53
2018-01-15T02:59:46.396Z,30.73
2018-01-15T03:04:49.257Z,29.27
2018-01-15T03:09:52.696Z,30.10
2018-01-15T03:14:55.331Z,30.60
2018-01-15T03:19:58.175Z,30.43
2018-01-15T03:25:00.788Z,28.73
2018-01-15T03:30:04.436Z,29.60
2018-01-15T03:35:07.194Z,30.37
2018-01-15T03:40:10.709Z,29.67
2018-01-15T03:45:14.099Z,29.60
2018-01-15T03:50:17.058Z,29.30
2018-01-15T03:55:19.741Z,29.83
2018-01-15T04:00:23.153Z,28.90
2018-01-15T04:05:25.785Z,27.43
2018-01-15T04:10:29.016Z,27.07
2018-01-15T04:15:31.871Z,29.67
2018-01-15T04:20:35.316Z,29.50
2018-01-15T04:25:37.994Z,29.03
2018-01-15T04:30:41.026Z,30.90
2018-01-15T04:35:43.677Z,28.23
2018-01-15T04:40:48.069Z,28.77
2018-01-15T04:45:50.728Z,29.63
2018-01-15T04:50:54.658Z,31.20
2018-01-15T04:55:58.077Z,31.53
2018-01-15T05:01:00.771Z,29.33
2018-01-15T05:06:04.206Z,29.13
2018-01-15T05:11:07.035Z,29.00
2018-01-15T05:16:09.658Z,30.80
2018-01-15T05:21:13.275Z,28.73
2018-01-15T05:26:15.951Z,29.33
2018-01-15T05:31:19.556Z,29.10
2018-01-15T05:36:22.169Z,29.30
2018-01-15T05:41:24.895Z,30.53
2018-01-15T05:46:27.509Z,30.50
2018-01-15T05:51:30.998Z,31.07
2018-01-15T05:56:33.857Z,30.87
2018-01-15T06:01:37.432Z,29.63
2018-01-15T06:06:40.120Z,29.23
2018-01-15T06:11:43.725Z,29.30
2018-01-15T06:16:46.510Z,30.50
2018-01-15T06:21:50.097Z,29.57
2018-01-15T06:26:53.533Z,28.00
2018-01-15T06:31:57.345Z,27.77
2018-01-15T06:37:00.001Z,29.87
2018-01-15T06:42:03.543Z,29.13
2018-01-15T06:47:06.216Z,29.17
2018-01-15T06:52:09.011Z,26.77
2018-01-15T06:57:11.674Z,26.43
2018-01-15T07:02:15.325Z,27.07
2018-01-15T07:07:18.056Z,24.53
2018-01-15T07:12:21.316Z,25.07
2018-01-15T07:17:24.795Z,22.37
2018-01-15T07:22:28.266Z,23.90
2018-01-15T07:27:30.909Z,24.20
2018-01-15T07:32:34.199Z,22.13
2018-01-15T07:37:37.081Z,23.13
2018-01-15T07:42:41.134Z,21.47
2018-01-15T07:47:43.785Z,21.40
2018-01-15T07:52:46.485Z,20.17
2018-01-15T07:57:49.146Z,20.93
2018-01-15T08:02:58.839Z,20.17
2018-01-15T08:08:04.547Z,19.33
2018-01-15T08:13:07.606Z,17.70
2018-01-15T08:18:10.256Z,18.40
2018-01-15T08:23:13.842Z,17.00
2018-01-15T08:28:17.621Z,16.77
2018-01-15T08:33:21.046Z,17.17
2018-01-15T08:38:23.720Z,14.07
2018-01-15T08:43:27.238Z,12.60
2018-01-15T08:48:29.947Z,11.93
2018-01-15T08:53:33.410Z,11.50
2018-01-15T08:58:36.050Z,10.97
2018-01-15T09:03:39.776Z,11.53
2018-01-15T09:08:43.178Z,10.93
2018-01-15T09:13:46.552Z,9.30
2018-01-15T09:18:49.198Z,10.90
2018-01-15T09:23:52.702Z,10.00
2018-01-15T09:28:55.361Z,8.00
2018-01-15T09:33:58.773Z,10.47
2018-01-15T09:39:01.415Z,9.30
2018-01-15T09:44:04.805Z,9.90
2018-01-15T09:49:07.487Z,8.80
2018-01-15T09:54:11.083Z,8.83
2018-01-15T09:59:14.602Z,8.20
2018-01-15T10:04:18.774Z,9.23
2018-01-15T10:09:21.382Z,8.53
2018-01-15T10:14:24.092Z,6.47
2018-01-15T10:19:26.758Z,8.40
2018-01-15T10:24:29.960Z,9.07
2018-01-15T10:29:32.679Z,8.07
2018-01-15T10:34:35.783Z,8.37
2018-01-15T10:39:38.477Z,8.20
2018-01-15T10:44:41.571Z,8.40
2018-01-15T10:49:44.230Z,8.20
2018-01-15T10:54:47.914Z,7.47
2018-01-15T10:59:50.588Z,8.17
2018-01-15T11:04:54.969Z,9.10
2018-01-15T11:09:57.633Z,9.20
2018-01-15T11:15:00.928Z,8.03
2018-01-15T11:20:04.343Z,8.27
2018-01-15T11:25:08.098Z,6.70
2018-01-15T11:30:10.791Z,8.37
2018-01-15T11:35:13.899Z,8.10
2018-01-15T11:40:16.562Z,9.03
2018-01-15T11:45:20.866Z,8.50
2018-01-15T11:50:23.526Z,8.13
2018-01-15T11:55:27.181Z,8.40
2018-01-15T12:00:29.824Z,8.93
2018-01-15T12:05:33.213Z,8.33
2018-01-15T12:10:35.822Z,9.77
2018-01-15T12:15:39.183Z,7.83
2018-01-15T12:20:42.583Z,8.97
2018-01-15T12:25:46.166Z,8.67
2018-01-15T12:30:48.806Z,8.60
2018-01-15T12:35:53.076Z,7.60
2018-01-15T12:40:55.742Z,9.77
2018-01-15T12:45:59.975Z,9.60
2018-01-15T12:51:02.601Z,8.63
2018-01-15T12:56:05.320Z,9.47
2018-01-15T13:01:07.974Z,10.27
2018-01-15T13:06:12.354Z,9.70
2018-01-15T13:11:14.981Z,10.90
2018-01-15T13:16:18.465Z,8.93
2018-01-15T13:21:21.126Z,11.30
2018-01-15T13:26:24.607Z,9.50
2018-01-15T13:31:27.278Z,10.97
2018-01-15T13:36:30.898Z,10.13
2018-01-15T13:41:33.542Z,9.90
2018-01-15T13:46:36.972Z,11.07
2018-01-15T13:51:39.710Z,10.80
2018-01-15T13:56:43.000Z,11.47
2018-01-15T14:01:45.643Z,10.67
2018-01-15T14:06:49.273Z,9.80
2018-01-15T14:11:51.910Z,12.07
2018-01-15T14:16:55.204Z,9.77
2018-01-15T14:21:57.818Z,10.40
2018-01-15T14:27:02.207Z,10.63
2018-01-15T14:32:04.871Z,11.00
2018-01-15T14:37:09.236Z,11.17
2018-01-15T14:42:11.910Z,11.77
2018-01-15T14:47:16.287Z,11.37
2018-01-15T14:52:18.954Z,12.27
2018-01-15T14:57:22.534Z,12.70
2018-01-15T15:02:25.945Z,11.93
2018-01-15T15:07:29.227Z,10.33
2018-01-15T15:12:32.029Z,10.73
2018-01-15T15:17:35.722Z,12.47
2018-01-15T15:22:38.397Z,12.47
2018-01-15T15:27:41.563Z,11.73
2018-01-15T15:32:44.269Z,12.37
2018-01-15T15:37:47.681Z,20.87
2018-01-15T15:42:50.348Z,13.00
2018-01-15T15:47:53.697Z,11.63
2018-01-15T15:52:56.404Z,12.67
2018-01-15T15:57:59.796Z,13.17
2018-01-15T16:03:03.337Z,13.60
2018-01-15T16:08:06.025Z,15.30
2018-01-15T16:13:09.553Z,13.97
2018-01-15T16:18:12.213Z,14.73
2018-01-15T16:23:14.868Z,14.47
2018-01-15T16:28:17.953Z,13.57
2018-01-15T16:33:20.742Z,14.63
2018-01-15T16:38:24.542Z,14.43
2018-01-15T16:43:27.195Z,14.70
2018-01-15T16:48:30.558Z,15.80
2018-01-15T16:53:33.202Z,15.10
2018-01-15T16:58:36.321Z,12.33
2018-01-15T17:03:39.012Z,14.57
2018-01-15T17:08:42.445Z,14.10
2018-01-15T17:13:45.103Z,15.83
2018-01-15T17:18:48.753Z,13.93
2018-01-15T17:23:51.474Z,10.97
2018-01-15T17:28:54.977Z,14.03
2018-01-15T17:33:57.774Z,14.30
2018-01-15T17:39:01.081Z,14.03
2018-01-15T17:44:04.499Z,14.43
2018-01-15T17:49:08.124Z,13.60
2018-01-15T17:54:10.776Z,13.80
2018-01-15T17:59:13.956Z,11.43
2018-01-15T18:04:16.599Z,14.77
2018-01-15T18:09:20.056Z,14.90
2018-01-15T18:14:22.777Z,14.20
2018-01-15T18:19:26.165Z,13.10
2018-01-15T18:24:29.590Z,14.10
2018-01-15T18:29:33.316Z,13.23
2018-01-15T18:34:35.962Z,13.73
2018-01-15T18:39:39.348Z,13.03
2018-01-15T18:44:41.996Z,11.50
2018-01-15T18:49:44.939Z,13.73
2018-01-15T18:54:47.649Z,13.30
2018-01-15T18:59:51.162Z,10.30
2018-01-15T19:04:53.878Z,12.07
2018-01-15T19:09:56.658Z,10.93
2018-01-15T19:14:59.302Z,12.30
2018-01-15T19:20:02.098Z,10.40
2018-01-15T19:25:04.756Z,9.40
2018-01-15T19:30:08.315Z,10.53
2018-01-15T19:40:46.914Z,11.13
2018-01-15T19:45:55.261Z,8.93
2018-01-15T19:51:03.830Z,11.67
2018-01-15T19:56:12.356Z,10.83
2018-01-15T20:01:20.899Z,10.67
2018-01-15T20:06:30.604Z,10.97
2018-01-15T20:11:33.367Z,10.60
2018-01-15T20:16:36.936Z,12.73
2018-01-15T20:21:39.581Z,9.30
2018-01-15T20:26:43.768Z,10.83
2018-01-15T20:31:46.523Z,8.70
2018-01-15T20:36:50.599Z,9.30
2018-01-15T20:41:53.357Z,10.83
2018-01-15T20:46:56.694Z,8.10
2018-01-15T20:51:59.659Z,10.93
2018-01-15T20:57:03.823Z,7.93
2018-01-15T21:02:06.510Z,10.70
2018-01-15T21:07:11.674Z,9.57
2018-01-15T21:12:14.582Z,8.47
2018-01-15T21:17:18.165Z,7.37
2018-01-15T21:22:20.852Z,7.20
2018-01-15T21:27:25.649Z,8.13
2018-01-15T21:32:29.473Z,6.83
2018-01-15T21:37:32.598Z,9.10
2018-01-15T21:42:35.438Z,6.27
2018-01-15T21:47:38.366Z,8.10
2018-01-15T21:52:41.211Z,9.20
2018-01-15T21:57:44.137Z,9.30
2018-01-15T22:02:47.114Z,7.97
2018-01-15T22:07:50.611Z,7.37
2018-01-15T22:12:54.248Z,8.60
2018-01-15T22:17:58.698Z,8.33
2018-01-15T22:23:01.496Z,7.43
2018-01-15T22:28:04.302Z,7.47
2018-01-15T22:33:07.108Z,8.37
2018-01-15T22:38:10.214Z,8.30
2018-01-15T22:43:13.549Z,8.73
2018-01-15T22:48:16.656Z,7.27
2018-01-15T22:53:19.546Z,8.83
2018-01-15T22:58:23.081Z,8.60
2018-01-15T23:03:25.730Z,7.40
2018-01-15T23:08:28.790Z,6.27
2018-01-15T23:13:31.530Z,8.27
2018-01-15T23:18:34.585Z,8.63
2018-01-15T23:23:37.256Z,6.10
2018-01-15T23:28:40.523Z,5.87
2018-01-15T23:33:43.177Z,6.93
2018-01-15T23:38:47.450Z,7.30
2018-01-15T23:43:50.254Z,6.43
2018-01-15T23:48:53.507Z,7.47
2018-01-15T23:53:56.275Z,7.23
2018-01-15T23:58:59.719Z,8.23
